createdAt,value
2023-05-06T00:01:45.256Z,14.50
2023-05-06T00:04:12.312Z,14.50
2023-05-06T00:06:38.958Z,14.60
2023-05-06T00:09:05.615Z,14.60
2023-05-06T00:11:32.369Z,14.50
2023-05-06T00:13:59.022Z,14.50
2023-05-06T00:16:25.707Z,14.50
2023-05-06T00:18:52.376Z,14.50
2023-05-06T00:21:19.083Z,14.50
2023-05-06T00:23:45.721Z,14.50
2023-05-06T00:26:12.503Z,14.50
2023-05-06T00:28:39.245Z,14.50
2023-05-06T00:31:06.145Z,14.50
2023-05-06T00:33:32.815Z,14.60
2023-05-06T00:35:59.432Z,14.60
2023-05-06T00:38:26.107Z,14.60
2023-05-06T00:40:52.916Z,14.60
2023-05-06T00:43:19.712Z,14.60
2023-05-06T00:45:46.529Z,14.50
2023-05-06T00:48:14.137Z,14.50
2023-05-06T00:50:40.809Z,14.50
2023-05-06T00:53:08.532Z,14.50
2023-05-06T00:55:35.561Z,14.40
2023-05-06T00:58:02.754Z,14.40
2023-05-06T01:00:29.547Z,14.40
2023-05-06T01:02:56.591Z,14.40
2023-05-06T01:05:25.532Z,14.40
2023-05-06T01:08:00.612Z,14.40
2023-05-06T01:10:36.199Z,14.40
2023-05-06T01:13:21.429Z,14.30
2023-05-06T01:15:50.185Z,14.30
2023-05-06T01:18:20.809Z,14.30
2023-05-06T01:20:49.729Z,14.20
2023-05-06T01:23:16.628Z,14.20
2023-05-06T01:25:43.509Z,14.10
2023-05-06T01:28:11.603Z,14.10
2023-05-06T01:30:44.732Z,14.00
2023-05-06T01:33:11.387Z,14.00
2023-05-06T01:35:49.055Z,13.90
2023-05-06T01:38:18.550Z,13.90
2023-05-06T01:40:49.420Z,13.90
2023-05-06T01:43:16.899Z,13.80
2023-05-06T01:45:43.906Z,13.80
2023-05-06T01:48:11.120Z,13.80
2023-05-06T01:50:37.835Z,13.80
2023-05-06T01:53:04.607Z,13.80
2023-05-06T01:55:32.236Z,13.70
2023-05-06T01:57:58.899Z,13.70
2023-05-06T02:00:26.229Z,13.70
2023-05-06T02:02:53.082Z,13.70
2023-05-06T02:05:19.996Z,13.80
2023-05-06T02:07:46.697Z,13.70
2023-05-06T02:10:13.422Z,13.70
2023-05-06T02:12:40.222Z,13.70
2023-05-06T02:15:07.279Z,13.70
2023-05-06T02:17:38.071Z,13.70
2023-05-06T02:20:06.035Z,13.70
2023-05-06T02:22:32.859Z,13.60
2023-05-06T02:24:59.549Z,13.60
2023-05-06T02:27:26.222Z,13.60
2023-05-06T02:29:53.241Z,13.60
2023-05-06T02:32:19.958Z,13.60
2023-05-06T02:34:46.597Z,13.50
2023-05-06T02:37:13.294Z,13.40
2023-05-06T02:39:40.032Z,13.40
2023-05-06T02:42:06.714Z,13.40
2023-05-06T02:44:33.358Z,13.30
2023-05-06T02:47:00.045Z,13.30
2023-05-06T02:49:26.684Z,13.30
2023-05-06T02:51:53.347Z,13.30
2023-05-06T02:54:19.992Z,13.20
2023-05-06T02:56:46.682Z,13.10
2023-05-06T02:59:13.651Z,13.10
2023-05-06T03:01:40.642Z,13.10
2023-05-06T03:04:07.385Z,13.10
2023-05-06T03:06:34.365Z,13.10
2023-05-06T03:09:01.059Z,13.10
2023-05-06T03:11:27.784Z,13.10
2023-05-06T03:13:54.509Z,13.10
2023-05-06T03:16:21.268Z,13.10
2023-05-06T03:18:47.939Z,13.20
2023-05-06T03:21:14.754Z,13.20
2023-05-06T03:23:41.374Z,13.20
2023-05-06T03:26:07.999Z,13.20
2023-05-06T03:28:34.691Z,13.20
2023-05-06T03:31:01.336Z,13.20
2023-05-06T03:33:28.006Z,13.10
2023-05-06T03:35:54.842Z,13.10
2023-05-06T03:38:21.601Z,13.10
2023-05-06T03:40:48.311Z,13.00
2023-05-06T03:43:14.973Z,13.00
2023-05-06T03:45:41.664Z,13.00
2023-05-06T03:48:08.408Z,13.00
2023-05-06T03:50:35.297Z,13.00
2023-05-06T03:53:02.016Z,12.90
2023-05-06T03:55:28.649Z,12.90
2023-05-06T03:57:55.272Z,12.90
2023-05-06T04:00:21.957Z,12.90
2023-05-06T04:02:48.717Z,13.00
2023-05-06T04:05:16.228Z,12.90
2023-05-06T04:07:42.956Z,12.80
2023-05-06T04:10:09.743Z,12.90
2023-05-06T04:12:36.607Z,12.80
2023-05-06T04:15:03.411Z,12.90
2023-05-06T04:17:30.097Z,12.80
2023-05-06T04:19:57.468Z,12.70
2023-05-06T04:22:24.146Z,12.70
2023-05-06T04:24:50.823Z,12.70
2023-05-06T04:27:17.582Z,12.60
2023-05-06T04:29:44.247Z,12.60
2023-05-06T04:32:11.875Z,12.50
2023-05-06T04:34:38.563Z,12.60
2023-05-06T04:37:05.708Z,12.70
2023-05-06T04:39:32.715Z,12.70
2023-05-06T04:41:59.330Z,12.80
2023-05-06T04:44:26.064Z,12.90
2023-05-06T04:46:52.746Z,12.90
2023-05-06T04:49:19.492Z,13.10
2023-05-06T04:51:46.169Z,13.20
2023-05-06T04:54:12.797Z,13.40
2023-05-06T04:56:39.475Z,13.50
2023-05-06T04:59:06.226Z,13.60
2023-05-06T05:01:33.199Z,13.70
2023-05-06T05:03:59.955Z,13.90
2023-05-06T05:06:26.617Z,13.90
2023-05-06T05:08:55.246Z,13.80
2023-05-06T05:11:22.089Z,13.70
2023-05-06T05:13:48.733Z,13.70
2023-05-06T05:16:15.491Z,13.90
2023-05-06T05:18:42.121Z,14.00
2023-05-06T05:21:08.840Z,14.00
2023-05-06T05:23:35.534Z,14.00
2023-05-06T05:26:03.121Z,14.10
2023-05-06T05:28:29.840Z,14.20
2023-05-06T05:31:01.376Z,14.60
2023-05-06T05:33:28.084Z,14.80
2023-05-06T05:35:54.810Z,14.90
2023-05-06T05:38:21.898Z,15.00
2023-05-06T05:40:48.700Z,15.00
2023-05-06T05:43:15.420Z,15.00
2023-05-06T05:45:42.167Z,15.10
2023-05-06T05:48:08.837Z,15.00
2023-05-06T05:50:35.550Z,15.10
2023-05-06T05:53:02.172Z,15.10
2023-05-06T05:55:29.469Z,15.20
2023-05-06T05:57:56.085Z,15.40
2023-05-06T06:00:22.769Z,15.40
2023-05-06T06:02:49.522Z,15.40
2023-05-06T06:05:16.688Z,15.40
2023-05-06T06:07:43.381Z,15.50
2023-05-06T06:10:10.214Z,15.60
2023-05-06T06:12:37.036Z,15.70
2023-05-06T06:15:03.850Z,15.90
2023-05-06T06:17:30.650Z,16.10
2023-05-06T06:19:58.740Z,16.30
2023-05-06T06:22:26.387Z,15.90
2023-05-06T06:24:56.210Z,15.90
2023-05-06T06:27:23.382Z,16.00
2023-05-06T06:29:50.426Z,16.10
2023-05-06T06:32:17.131Z,16.30
2023-05-06T06:34:43.770Z,16.00
2023-05-06T06:37:10.767Z,16.30
2023-05-06T06:39:37.421Z,16.60
2023-05-06T06:42:04.445Z,16.80
2023-05-06T06:44:31.143Z,17.00
2023-05-06T06:46:57.785Z,17.40
2023-05-06T06:49:24.409Z,17.60
2023-05-06T06:51:51.546Z,17.60
2023-05-06T06:54:18.214Z,17.60
2023-05-06T06:56:44.915Z,17.50
2023-05-06T06:59:11.619Z,17.30
2023-05-06T07:01:38.333Z,17.20
2023-05-06T07:04:07.033Z,17.20
2023-05-06T07:06:33.856Z,17.30
2023-05-06T07:09:00.576Z,18.20
2023-05-06T07:11:27.236Z,20.70
2023-05-06T07:13:53.949Z,22.70
2023-05-06T07:16:20.595Z,24.50
2023-05-06T07:18:47.974Z,26.50
2023-05-06T07:21:14.665Z,27.70
2023-05-06T07:23:41.359Z,27.50
2023-05-06T07:26:07.961Z,27.80
2023-05-06T07:28:34.638Z,28.90
2023-05-06T07:31:01.370Z,29.40
2023-05-06T07:33:28.131Z,28.50
2023-05-06T07:35:54.958Z,27.50
2023-05-06T07:38:22.721Z,28.40
2023-05-06T07:40:49.741Z,29.40
2023-05-06T07:43:16.418Z,30.40
2023-05-06T07:45:43.111Z,29.60
2023-05-06T07:48:10.019Z,28.90
2023-05-06T07:50:36.733Z,28.00
2023-05-06T07:53:04.103Z,25.90
2023-05-06T07:55:32.039Z,24.40
2023-05-06T07:58:00.346Z,22.80
2023-05-06T08:00:27.223Z,22.00
2023-05-06T08:02:54.010Z,21.70
2023-05-06T08:05:20.748Z,21.40
2023-05-06T08:07:47.379Z,21.30
2023-05-06T08:10:14.052Z,20.80
2023-05-06T08:12:41.546Z,20.70
2023-05-06T08:15:08.607Z,21.50
2023-05-06T08:17:35.297Z,22.80
2023-05-06T08:20:01.969Z,23.40
2023-05-06T08:22:28.625Z,23.10
2023-05-06T08:24:55.369Z,23.00
2023-05-06T08:27:21.971Z,22.60
2023-05-06T08:29:48.657Z,23.30
2023-05-06T08:32:15.506Z,23.60
2023-05-06T08:34:42.140Z,23.70
2023-05-06T08:37:08.801Z,24.60
2023-05-06T08:39:35.523Z,25.30
2023-05-06T08:42:03.133Z,25.90
2023-05-06T08:44:29.903Z,25.30
2023-05-06T08:46:56.607Z,25.80
2023-05-06T08:49:23.242Z,26.30
2023-05-06T08:51:54.398Z,26.40
2023-05-06T08:54:22.788Z,26.40
2023-05-06T08:56:53.278Z,25.60
2023-05-06T08:59:23.662Z,25.80
2023-05-06T09:01:50.797Z,26.00
2023-05-06T09:04:18.476Z,25.40
2023-05-06T09:06:45.121Z,24.40
2023-05-06T09:09:13.024Z,23.60
2023-05-06T09:11:39.754Z,23.00
2023-05-06T09:14:11.080Z,23.00
2023-05-06T09:16:38.422Z,23.50
2023-05-06T09:19:05.824Z,23.20
2023-05-06T09:21:36.886Z,24.10
2023-05-06T09:24:04.546Z,24.80
2023-05-06T09:26:31.781Z,25.00
2023-05-06T09:28:59.103Z,25.90
2023-05-06T09:31:26.371Z,26.00
2023-05-06T09:33:53.653Z,25.90
2023-05-06T09:36:20.785Z,26.10
2023-05-06T09:38:47.812Z,25.40
2023-05-06T09:41:14.616Z,25.10
2023-05-06T09:43:45.040Z,25.00
2023-05-06T09:46:12.586Z,25.40
2023-05-06T09:48:39.728Z,25.70
2023-05-06T09:51:07.702Z,25.40
2023-05-06T09:53:36.104Z,25.70
2023-05-06T09:56:06.674Z,25.80
2023-05-06T09:58:33.991Z,25.70
2023-05-06T10:01:01.450Z,25.70
2023-05-06T10:03:28.646Z,25.50
2023-05-06T10:05:57.220Z,25.30
2023-05-06T10:08:24.301Z,25.40
2023-05-06T10:10:51.203Z,25.40
2023-05-06T10:13:19.488Z,25.50
2023-05-06T10:15:47.898Z,25.50
2023-05-06T10:18:19.123Z,24.90
2023-05-06T10:20:46.828Z,24.90
2023-05-06T10:23:15.324Z,25.20
2023-05-06T10:25:42.648Z,25.00
2023-05-06T10:28:11.268Z,24.60
2023-05-06T10:30:58.081Z,24.40
2023-05-06T10:33:25.667Z,24.80
2023-05-06T10:36:27.832Z,24.90
2023-05-06T10:38:56.478Z,25.00
2023-05-06T10:41:24.156Z,24.70
2023-05-06T10:43:56.714Z,24.40
2023-05-06T10:46:24.677Z,24.60
2023-05-06T10:49:06.737Z,24.50
2023-05-06T10:51:42.355Z,24.00
2023-05-06T10:54:09.103Z,23.30
2023-05-06T10:56:36.921Z,22.90
2023-05-06T10:59:09.901Z,23.20
2023-05-06T11:01:37.284Z,23.90
2023-05-06T11:04:14.262Z,24.10
2023-05-06T11:06:50.675Z,24.30
2023-05-06T11:09:25.305Z,24.40
2023-05-06T11:12:02.708Z,24.50
2023-05-06T11:14:29.373Z,24.60
2023-05-06T11:16:57.410Z,24.20
2023-05-06T11:19:25.547Z,23.70
2023-05-06T11:21:52.939Z,23.90
2023-05-06T11:24:27.363Z,24.20
2023-05-06T11:26:54.680Z,24.40
2023-05-06T11:29:21.432Z,24.30
2023-05-06T11:31:49.648Z,24.30
2023-05-06T11:34:27.191Z,24.60
2023-05-06T11:37:03.873Z,24.60
2023-05-06T11:39:34.869Z,24.20
2023-05-06T11:42:07.220Z,24.60
2023-05-06T11:44:34.823Z,24.30
2023-05-06T11:47:03.202Z,23.70
2023-05-06T11:49:30.038Z,23.90
2023-05-06T11:51:57.165Z,23.70
2023-05-06T11:54:25.030Z,23.80
2023-05-06T11:56:52.612Z,23.80
2023-05-06T11:59:26.592Z,23.30
2023-05-06T12:01:53.262Z,23.10
2023-05-06T12:04:19.883Z,23.40
2023-05-06T12:06:46.656Z,23.60
2023-05-06T12:09:13.670Z,23.30
2023-05-06T12:11:42.577Z,23.20
2023-05-06T12:14:10.620Z,23.10
2023-05-06T12:16:37.592Z,22.90
2023-05-06T12:19:04.659Z,23.20
2023-05-06T12:21:32.978Z,23.70
2023-05-06T12:24:01.121Z,23.80
2023-05-06T12:26:28.162Z,24.10
2023-05-06T12:29:05.849Z,24.50
2023-05-06T12:31:32.645Z,24.00
2023-05-06T12:34:01.189Z,23.80
2023-05-06T12:36:28.198Z,24.20
2023-05-06T12:38:55.768Z,23.70
2023-05-06T12:41:23.185Z,24.10
2023-05-06T12:43:50.331Z,24.30
2023-05-06T12:46:17.539Z,24.20
2023-05-06T12:48:59.893Z,24.40
2023-05-06T12:51:27.391Z,24.40
2023-05-06T12:53:54.305Z,24.40
2023-05-06T12:56:22.129Z,24.70
2023-05-06T12:58:59.065Z,25.10
2023-05-06T13:01:25.977Z,25.30
2023-05-06T13:03:53.703Z,25.70
2023-05-06T13:06:20.480Z,25.70
2023-05-06T13:08:47.170Z,24.80
2023-05-06T13:11:13.949Z,24.80
2023-05-06T13:13:41.001Z,24.80
2023-05-06T13:16:08.692Z,24.50
2023-05-06T13:18:35.976Z,24.90
2023-05-06T13:21:03.847Z,24.50
2023-05-06T13:23:31.842Z,24.60
2023-05-06T13:26:04.793Z,24.70
2023-05-06T13:28:33.536Z,24.40
2023-05-06T13:31:00.370Z,24.20
2023-05-06T13:33:27.182Z,23.90
2023-05-06T13:35:54.031Z,23.80
2023-05-06T13:38:20.988Z,23.80
2023-05-06T13:40:50.243Z,23.50
2023-05-06T13:43:17.311Z,23.30
2023-05-06T13:45:47.081Z,23.30
2023-05-06T13:48:14.109Z,23.40
2023-05-06T13:50:44.551Z,23.50
2023-05-06T13:53:11.611Z,23.50
2023-05-06T13:55:38.471Z,23.40
2023-05-06T13:58:05.875Z,23.20
2023-05-06T14:00:32.902Z,23.20
2023-05-06T14:02:59.733Z,23.20
2023-05-06T14:05:26.541Z,23.20
2023-05-06T14:07:53.301Z,23.10
2023-05-06T14:10:20.854Z,23.20
2023-05-06T14:12:48.144Z,22.90
2023-05-06T14:15:15.160Z,22.60
2023-05-06T14:17:41.901Z,22.90
2023-05-06T14:20:11.820Z,22.90
2023-05-06T14:22:40.685Z,23.20
2023-05-06T14:25:07.718Z,23.30
2023-05-06T14:27:34.812Z,23.30
2023-05-06T14:30:01.731Z,23.20
2023-05-06T14:32:28.403Z,23.60
2023-05-06T14:34:56.049Z,23.80
2023-05-06T14:37:22.668Z,23.80
2023-05-06T14:39:49.942Z,23.70
2023-05-06T14:42:16.599Z,23.70
2023-05-06T14:44:45.123Z,24.00
2023-05-06T14:47:11.956Z,24.10
2023-05-06T14:49:38.712Z,23.90
2023-05-06T14:52:05.339Z,23.50
2023-05-06T14:54:33.098Z,23.30
2023-05-06T14:57:02.952Z,23.60
2023-05-06T14:59:29.675Z,23.40
2023-05-06T15:01:56.791Z,23.10
2023-05-06T15:04:23.472Z,22.90
2023-05-06T15:06:50.176Z,23.00
2023-05-06T15:09:16.804Z,23.00
2023-05-06T15:11:44.224Z,23.00
2023-05-06T15:14:10.896Z,23.10
2023-05-06T15:16:37.669Z,23.20
2023-05-06T15:19:04.547Z,23.30
2023-05-06T15:21:31.394Z,23.50
2023-05-06T15:23:58.072Z,23.50
2023-05-06T15:26:24.847Z,23.50
2023-05-06T15:28:51.516Z,23.70
2023-05-06T15:31:18.174Z,23.60
2023-05-06T15:33:44.945Z,23.30
2023-05-06T15:36:11.576Z,23.10
2023-05-06T15:38:53.312Z,23.10
2023-05-06T15:41:20.059Z,23.40
2023-05-06T15:43:46.750Z,23.70
2023-05-06T15:46:13.464Z,24.00
2023-05-06T15:48:40.123Z,23.90
2023-05-06T15:51:06.783Z,23.90
2023-05-06T15:53:33.414Z,23.80
2023-05-06T15:56:13.261Z,23.60
2023-05-06T15:58:44.582Z,23.80
2023-05-06T16:01:11.420Z,23.40
2023-05-06T16:03:41.047Z,23.40
2023-05-06T16:06:08.827Z,23.20
2023-05-06T16:08:35.905Z,22.90
2023-05-06T16:11:02.704Z,23.00
2023-05-06T16:13:29.372Z,23.20
2023-05-06T16:15:56.150Z,23.10
2023-05-06T16:18:22.842Z,23.30
2023-05-06T16:20:49.445Z,23.30
2023-05-06T16:23:16.393Z,23.00
2023-05-06T16:25:43.200Z,22.70
2023-05-06T16:28:09.950Z,22.70
2023-05-06T16:30:36.935Z,22.70
2023-05-06T16:33:05.105Z,22.70
2023-05-06T16:35:32.350Z,22.70
2023-05-06T16:37:59.145Z,22.60
2023-05-06T16:40:27.724Z,22.50
2023-05-06T16:42:55.173Z,22.30
2023-05-06T16:45:21.935Z,22.40
2023-05-06T16:47:48.801Z,22.40
2023-05-06T16:50:15.816Z,22.30
2023-05-06T16:52:42.614Z,22.20
2023-05-06T16:55:09.558Z,22.20
2023-05-06T16:57:36.616Z,22.20
2023-05-06T17:00:06.164Z,22.20
2023-05-06T17:02:32.931Z,22.20
2023-05-06T17:04:59.688Z,22.10
2023-05-06T17:07:26.338Z,21.90
2023-05-06T17:09:52.972Z,21.90
2023-05-06T17:12:23.711Z,21.80
2023-05-06T17:14:50.818Z,21.70
2023-05-06T17:17:18.605Z,21.60
2023-05-06T17:19:47.097Z,21.50
2023-05-06T17:22:13.743Z,21.40
2023-05-06T17:24:40.483Z,21.30
2023-05-06T17:27:07.323Z,21.30
2023-05-06T17:29:33.991Z,21.20
2023-05-06T17:32:00.685Z,21.10
2023-05-06T17:34:27.348Z,21.00
2023-05-06T17:36:54.106Z,20.90
2023-05-06T17:39:21.297Z,20.90
2023-05-06T17:41:47.899Z,20.90
2023-05-06T17:44:17.504Z,20.90
2023-05-06T17:46:47.293Z,20.90
2023-05-06T17:49:13.965Z,20.90
2023-05-06T17:51:42.511Z,20.90
2023-05-06T17:54:09.181Z,20.90
2023-05-06T17:56:35.828Z,20.80
2023-05-06T17:59:04.864Z,20.60
2023-05-06T18:01:31.976Z,20.50
2023-05-06T18:03:58.866Z,20.50
2023-05-06T18:06:27.004Z,20.50
2023-05-06T18:08:53.593Z,20.40
2023-05-06T18:11:20.716Z,20.30
2023-05-06T18:13:47.424Z,20.20
2023-05-06T18:16:14.171Z,20.10
2023-05-06T18:18:42.494Z,20.00
2023-05-06T18:21:09.279Z,19.80
2023-05-06T18:23:35.966Z,19.70
2023-05-06T18:26:05.834Z,19.60
2023-05-06T18:28:36.169Z,19.50
2023-05-06T18:31:02.874Z,19.30
2023-05-06T18:33:29.498Z,19.20
2023-05-06T18:35:56.543Z,19.10
2023-05-06T18:38:26.549Z,18.90
2023-05-06T18:40:53.243Z,18.70
2023-05-06T18:43:19.930Z,18.60
2023-05-06T18:45:46.627Z,18.40
2023-05-06T18:48:13.408Z,18.20
2023-05-06T18:50:41.058Z,18.00
2023-05-06T18:53:07.729Z,17.90
2023-05-06T18:55:34.456Z,17.70
2023-05-06T18:58:05.500Z,17.50
2023-05-06T19:00:32.567Z,17.30
2023-05-06T19:02:59.285Z,17.10
2023-05-06T19:05:26.115Z,17.00
2023-05-06T19:07:52.724Z,16.90
2023-05-06T19:10:19.491Z,16.90
2023-05-06T19:12:46.194Z,16.80
2023-05-06T19:15:14.089Z,16.70
2023-05-06T19:17:41.352Z,16.60
2023-05-06T19:20:08.499Z,16.60
2023-05-06T19:22:35.237Z,16.50
2023-05-06T19:25:01.835Z,16.50
2023-05-06T19:27:28.835Z,16.40
2023-05-06T19:29:55.431Z,16.40
2023-05-06T19:32:22.110Z,16.30
2023-05-06T19:34:48.864Z,16.30
2023-05-06T19:37:15.507Z,16.20
2023-05-06T19:39:42.682Z,16.10
2023-05-06T19:42:09.563Z,16.00
2023-05-06T19:44:36.247Z,15.90
2023-05-06T19:47:03.046Z,15.80
2023-05-06T19:49:32.094Z,15.70
2023-05-06T19:51:59.251Z,15.70
2023-05-06T19:54:27.021Z,15.60
2023-05-06T19:56:53.715Z,15.60
2023-05-06T19:59:20.420Z,15.50
2023-05-06T20:01:47.101Z,15.50
2023-05-06T20:04:13.834Z,15.40
2023-05-06T20:06:40.565Z,15.30
2023-05-06T20:09:07.255Z,15.20
2023-05-06T20:11:33.932Z,15.20
2023-05-06T20:14:00.724Z,15.10
2023-05-06T20:16:27.450Z,14.90
2023-05-06T20:18:54.260Z,14.90
2023-05-06T20:21:20.955Z,14.80
2023-05-06T20:23:47.691Z,14.70
2023-05-06T20:26:14.345Z,14.60
2023-05-06T20:28:40.960Z,14.60
2023-05-06T20:31:07.721Z,14.50
2023-05-06T20:33:34.500Z,14.50
2023-05-06T20:36:01.461Z,14.40
2023-05-06T20:38:30.785Z,14.30
2023-05-06T20:40:58.752Z,14.30
2023-05-06T20:43:25.476Z,14.20
2023-05-06T20:45:52.246Z,14.20
2023-05-06T20:48:19.125Z,14.20
2023-05-06T20:50:46.284Z,14.10
2023-05-06T20:53:12.883Z,14.10
2023-05-06T20:55:39.527Z,14.00
2023-05-06T20:58:06.226Z,13.90
2023-05-06T21:00:32.939Z,13.90
2023-05-06T21:02:59.834Z,13.80
2023-05-06T21:05:26.766Z,13.70
2023-05-06T21:07:53.928Z,13.70
2023-05-06T21:10:20.661Z,13.60
2023-05-06T21:12:47.926Z,13.60
2023-05-06T21:15:15.092Z,13.60
2023-05-06T21:17:41.978Z,13.60
2023-05-06T21:20:08.869Z,13.60
2023-05-06T21:22:35.809Z,13.50
2023-05-06T21:25:02.507Z,13.40
2023-05-06T21:27:29.162Z,13.40
2023-05-06T21:29:56.619Z,13.30
2023-05-06T21:32:23.331Z,13.20
2023-05-06T21:34:49.941Z,13.10
2023-05-06T21:37:16.553Z,13.00
2023-05-06T21:39:43.436Z,13.00
2023-05-06T21:42:10.183Z,13.00
2023-05-06T21:44:37.579Z,12.90
2023-05-06T21:47:04.262Z,12.90
2023-05-06T21:49:30.918Z,12.90
2023-05-06T21:51:57.580Z,12.80
2023-05-06T21:54:25.125Z,12.80
2023-05-06T21:56:51.702Z,12.70
2023-05-06T21:59:19.729Z,12.60
2023-05-06T22:01:46.507Z,12.50
2023-05-06T22:04:13.541Z,12.50
2023-05-06T22:06:40.413Z,12.40
2023-05-06T22:09:09.637Z,12.40
2023-05-06T22:11:39.270Z,12.40
2023-05-06T22:14:06.626Z,12.40
2023-05-06T22:16:38.133Z,12.40
2023-05-06T22:19:05.766Z,12.30
2023-05-06T22:21:33.790Z,12.30
2023-05-06T22:24:00.850Z,12.20
2023-05-06T22:26:32.801Z,12.20
2023-05-06T22:28:59.480Z,12.20
2023-05-06T22:31:26.380Z,12.20
2023-05-06T22:33:57.514Z,12.30
2023-05-06T22:36:27.888Z,12.30
2023-05-06T22:38:54.687Z,12.30
2023-05-06T22:41:21.788Z,12.20
2023-05-06T22:43:48.445Z,12.20
2023-05-06T22:46:15.146Z,12.20
2023-05-06T22:48:44.624Z,12.20
2023-05-06T22:51:15.550Z,12.20
2023-05-06T22:53:42.341Z,12.20
2023-05-06T22:56:09.248Z,12.30
2023-05-06T22:58:36.096Z,12.30
2023-05-06T23:01:02.893Z,12.30
2023-05-06T23:03:29.615Z,12.30
2023-05-06T23:05:56.378Z,12.30
2023-05-06T23:08:23.057Z,12.30
2023-05-06T23:10:49.734Z,12.30
2023-05-06T23:13:16.477Z,12.40
2023-05-06T23:15:43.189Z,12.30
2023-05-06T23:18:09.928Z,12.30
2023-05-06T23:20:36.621Z,12.40
2023-05-06T23:23:03.915Z,12.40
2023-05-06T23:25:30.714Z,12.40
2023-05-06T23:27:57.348Z,12.40
2023-05-06T23:30:24.094Z,12.40
2023-05-06T23:32:50.846Z,12.40
2023-05-06T23:35:17.444Z,12.40
2023-05-06T23:37:44.101Z,12.40
2023-05-06T23:40:12.602Z,12.30
2023-05-06T23:42:39.595Z,12.30
2023-05-06T23:45:06.535Z,12.30
2023-05-06T23:47:33.336Z,12.20
2023-05-06T23:50:00.749Z,12.20
2023-05-06T23:52:27.514Z,12.20
2023-05-06T23:54:54.126Z,12.10
2023-05-06T23:57:20.865Z,12.10
2023-05-06T23:59:47.540Z,12.10
